Middletown, Pennsylvania
Current Conditions -  °F | °C
As of 12:56 PM on Friday 21 Nov 2014 (Local Time) from KMDT Reporting Station
Scattered Clouds Scattered Clouds  
Wind Chill: 25°   Ceiling: Unl
Heat Index: 34°   Visibility: 10mi
Dew Point: 10°   Wind: 13mph
Humidity: 37%   Direction: 300°WNW
Pressure: 30.4"   Gusts: NA
Location:  40.2°N, 76.73°W
Report Text: KMDT 211756Z 30011KT 10SM SCT055 01/M12 A3040 RMK AO2 SLP299 T00111122 10011 21033 51006
Loading
Personal Weather Stations






























Interactive Weather Map New forecast layout! Learn more

10-Day Weather Forecast

Advertisements
Track Severe Weather on mobile